sensor_id;sensor_type;location;lat;lon;timestamp;pressure;altitude;pressure_sealevel;temperature;humidity
70971;BME280;58632;51.718;19.446;2023-05-22T00:00:09;99979.08;;;11.06;100.00
70971;BME280;58632;51.718;19.446;2023-05-22T00:02:57;99979.90;;;10.99;100.00
70971;BME280;58632;51.718;19.446;2023-05-22T00:05:23;99979.28;;;10.94;100.00
70971;BME280;58632;51.718;19.446;2023-05-22T00:07:48;99975.45;;;10.92;100.00
70971;BME280;58632;51.718;19.446;2023-05-22T00:10:14;99972.05;;;10.90;100.00
70971;BME280;58632;51.718;19.446;2023-05-22T00:12:39;99977.13;;;10.89;100.00
70971;BME280;58632;51.718;19.446;2023-05-22T00:15:05;99969.08;;;10.90;100.00
70971;BME280;58632;51.718;19.446;2023-05-22T00:17:31;99963.33;;;10.92;100.00
70971;BME280;58632;51.718;19.446;2023-05-22T00:19:58;99965.99;;;10.96;100.00
70971;BME280;58632;51.718;19.446;2023-05-22T00:22:31;99962.46;;;10.99;100.00
70971;BME280;58632;51.718;19.446;2023-05-22T00:25:02;99961.81;;;11.04;100.00
70971;BME280;58632;51.718;19.446;2023-05-22T00:27:28;99957.38;;;11.06;100.00
70971;BME280;58632;51.718;19.446;2023-05-22T00:29:53;99955.25;;;11.06;100.00
70971;BME280;58632;51.718;19.446;2023-05-22T00:32:18;99953.70;;;11.05;100.00
70971;BME280;58632;51.718;19.446;2023-05-22T00:34:44;99948.89;;;11.02;100.00
70971;BME280;58632;51.718;19.446;2023-05-22T00:37:09;99947.54;;;10.98;100.00
70971;BME280;58632;51.718;19.446;2023-05-22T00:39:37;99947.50;;;10.94;100.00
70971;BME280;58632;51.718;19.446;2023-05-22T00:42:03;99944.43;;;10.88;100.00
70971;BME280;58632;51.718;19.446;2023-05-22T00:44:28;99947.25;;;10.82;100.00
70971;BME280;58632;51.718;19.446;2023-05-22T00:46:53;99947.20;;;10.72;100.00
70971;BME280;58632;51.718;19.446;2023-05-22T00:49:19;99948.17;;;10.63;100.00
70971;BME280;58632;51.718;19.446;2023-05-22T00:51:44;99944.16;;;10.54;100.00
70971;BME280;58632;51.718;19.446;2023-05-22T00:54:10;99943.23;;;10.48;100.00
70971;BME280;58632;51.718;19.446;2023-05-22T00:56:36;99947.36;;;10.40;100.00
70971;BME280;58632;51.718;19.446;2023-05-22T00:59:02;99943.63;;;10.37;100.00
70971;BME280;58632;51.718;19.446;2023-05-22T01:01:28;99943.35;;;10.34;100.00
70971;BME280;58632;51.718;19.446;2023-05-22T01:03:58;99943.63;;;10.34;100.00
70971;BME280;58632;51.718;19.446;2023-05-22T01:06:25;99940.45;;;10.34;100.00
70971;BME280;58632;51.718;19.446;2023-05-22T01:08:51;99946.69;;;10.37;100.00
70971;BME280;58632;51.718;19.446;2023-05-22T01:11:18;99951.14;;;10.42;100.00
70971;BME280;58632;51.718;19.446;2023-05-22T01:19:11;99944.84;;;10.46;100.00
70971;BME280;58632;51.718;19.446;2023-05-22T01:21:56;99948.35;;;10.46;100.00
70971;BME280;58632;51.718;19.446;2023-05-22T01:27:15;99944.95;;;10.38;100.00
70971;BME280;58632;51.718;19.446;2023-05-22T01:29:45;99947.22;;;10.32;100.00
70971;BME280;58632;51.718;19.446;2023-05-22T01:32:13;99948.02;;;10.28;100.00
70971;BME280;58632;51.718;19.446;2023-05-22T01:34:43;99951.20;;;10.23;100.00
70971;BME280;58632;51.718;19.446;2023-05-22T01:37:09;99955.88;;;10.18;100.00
70971;BME280;58632;51.718;19.446;2023-05-22T01:39:35;99951.96;;;10.13;100.00
70971;BME280;58632;51.718;19.446;2023-05-22T01:42:01;99954.35;;;10.07;100.00
70971;BME280;58632;51.718;19.446;2023-05-22T01:44:29;99951.65;;;10.02;100.00
70971;BME280;58632;51.718;19.446;2023-05-22T01:46:57;99952.38;;;10.01;100.00
70971;BME280;58632;51.718;19.446;2023-05-22T01:49:27;99951.28;;;10.00;100.00
70971;BME280;58632;51.718;19.446;2023-05-22T01:51:56;99950.72;;;9.98;100.00
70971;BME280;58632;51.718;19.446;2023-05-22T01:56:52;99951.14;;;10.01;100.00
70971;BME280;58632;51.718;19.446;2023-05-22T01:59:34;99950.73;;;10.06;100.00
70971;BME280;58632;51.718;19.446;2023-05-22T02:02:05;99951.75;;;10.09;100.00
70971;BME280;58632;51.718;19.446;2023-05-22T02:04:31;99949.20;;;10.09;100.00
70971;BME280;58632;51.718;19.446;2023-05-22T02:06:59;99946.18;;;10.08;100.00
70971;BME280;58632;51.718;19.446;2023-05-22T02:09:27;99946.05;;;10.07;100.00
70971;BME280;58632;51.718;19.446;2023-05-22T02:11:53;99944.23;;;10.05;100.00
70971;BME280;58632;51.718;19.446;2023-05-22T02:14:21;99943.80;;;10.03;100.00
70971;BME280;58632;51.718;19.446;2023-05-22T02:16:47;99946.45;;;10.00;100.00
70971;BME280;58632;51.718;19.446;2023-05-22T02:19:13;99948.48;;;9.95;100.00
70971;BME280;58632;51.718;19.446;2023-05-22T02:21:39;99949.91;;;9.91;100.00
70971;BME280;58632;51.718;19.446;2023-05-22T02:24:04;99951.40;;;9.86;100.00
70971;BME280;58632;51.718;19.446;2023-05-22T02:26:30;99950.48;;;9.84;100.00
70971;BME280;58632;51.718;19.446;2023-05-22T02:28:58;99946.09;;;9.82;100.00
70971;BME280;58632;51.718;19.446;2023-05-22T02:31:23;99944.20;;;9.81;100.00
70971;BME280;58632;51.718;19.446;2023-05-22T02:33:49;99943.30;;;9.82;100.00
70971;BME280;58632;51.718;19.446;2023-05-22T02:36:14;99941.98;;;9.84;100.00
70971;BME280;58632;51.718;19.446;2023-05-22T02:38:42;99941.02;;;9.85;100.00
70971;BME280;58632;51.718;19.446;2023-05-22T02:41:07;99935.77;;;9.86;100.00
70971;BME280;58632;51.718;19.446;2023-05-22T02:43:33;99937.11;;;9.87;100.00
70971;BME280;58632;51.718;19.446;2023-05-22T02:45:58;99932.67;;;9.87;100.00
70971;BME280;58632;51.718;19.446;2023-05-22T02:48:24;99929.88;;;9.87;100.00
70971;BME280;58632;51.718;19.446;2023-05-22T02:50:49;99931.61;;;9.88;100.00
70971;BME280;58632;51.718;19.446;2023-05-22T02:53:15;99935.26;;;9.88;100.00
70971;BME280;58632;51.718;19.446;2023-05-22T02:55:41;99933.54;;;9.90;100.00
70971;BME280;58632;51.718;19.446;2023-05-22T02:58:07;99935.98;;;9.90;100.00
70971;BME280;58632;51.718;19.446;2023-05-22T03:00:38;99934.54;;;9.93;100.00
70971;BME280;58632;51.718;19.446;2023-05-22T03:03:04;99932.98;;;9.94;100.00
70971;BME280;58632;51.718;19.446;2023-05-22T03:05:29;99933.42;;;10.00;100.00
70971;BME280;58632;51.718;19.446;2023-05-22T03:07:56;99933.91;;;10.08;100.00
70971;BME280;58632;51.718;19.446;2023-05-22T03:10:22;99931.87;;;10.19;100.00
70971;BME280;58632;51.718;19.446;2023-05-22T03:12:47;99931.10;;;10.32;100.00
70971;BME280;58632;51.718;19.446;2023-05-22T03:15:13;99935.24;;;10.45;100.00
70971;BME280;58632;51.718;19.446;2023-05-22T03:17:38;99928.88;;;10.58;100.00
70971;BME280;58632;51.718;19.446;2023-05-22T03:20:04;99927.77;;;10.74;100.00
70971;BME280;58632;51.718;19.446;2023-05-22T03:22:30;99937.95;;;10.89;100.00
70971;BME280;58632;51.718;19.446;2023-05-22T03:24:56;99933.83;;;10.98;100.00
70971;BME280;58632;51.718;19.446;2023-05-22T03:27:21;99932.65;;;11.12;100.00
70971;BME280;58632;51.718;19.446;2023-05-22T03:29:47;99927.37;;;11.25;100.00
70971;BME280;58632;51.718;19.446;2023-05-22T03:32:12;99929.36;;;11.41;100.00
70971;BME280;58632;51.718;19.446;2023-05-22T03:34:38;99932.05;;;11.56;100.00
70971;BME280;58632;51.718;19.446;2023-05-22T03:37:03;99925.86;;;11.69;100.00
70971;BME280;58632;51.718;19.446;2023-05-22T03:39:29;99928.85;;;11.83;100.00
70971;BME280;58632;51.718;19.446;2023-05-22T03:41:54;99932.94;;;11.96;100.00
70971;BME280;58632;51.718;19.446;2023-05-22T03:44:19;99935.16;;;12.10;100.00
70971;BME280;58632;51.718;19.446;2023-05-22T03:46:45;99931.51;;;12.22;100.00
70971;BME280;58632;51.718;19.446;2023-05-22T03:49:10;99924.99;;;12.36;100.00
70971;BME280;58632;51.718;19.446;2023-05-22T03:51:36;99926.64;;;12.49;100.00
70971;BME280;58632;51.718;19.446;2023-05-22T03:54:01;99929.63;;;12.65;100.00
70971;BME280;58632;51.718;19.446;2023-05-22T03:56:26;99927.48;;;12.83;100.00
70971;BME280;58632;51.718;19.446;2023-05-22T03:58:52;99929.13;;;13.01;100.00
70971;BME280;58632;51.718;19.446;2023-05-22T04:01:18;99930.02;;;13.21;100.00
70971;BME280;58632;51.718;19.446;2023-05-22T04:03:43;99926.73;;;13.42;100.00
70971;BME280;58632;51.718;19.446;2023-05-22T04:06:08;99925.16;;;13.61;100.00
70971;BME280;58632;51.718;19.446;2023-05-22T04:08:34;99925.15;;;13.84;100.00
70971;BME280;58632;51.718;19.446;2023-05-22T04:11:00;99925.14;;;14.07;100.00
70971;BME280;58632;51.718;19.446;2023-05-22T04:13:27;99927.85;;;14.32;100.00
70971;BME280;58632;51.718;19.446;2023-05-22T04:15:54;99925.92;;;14.62;100.00
70971;BME280;58632;51.718;19.446;2023-05-22T04:18:20;99924.16;;;15.24;100.00
70971;BME280;58632;51.718;19.446;2023-05-22T04:20:46;99922.64;;;16.72;100.00
70971;BME280;58632;51.718;19.446;2023-05-22T04:23:11;99920.30;;;18.05;100.00
70971;BME280;58632;51.718;19.446;2023-05-22T04:25:37;99913.49;;;19.37;100.00
70971;BME280;58632;51.718;19.446;2023-05-22T04:28:02;99911.06;;;20.53;95.90
70971;BME280;58632;51.718;19.446;2023-05-22T04:30:28;99910.81;;;21.51;86.41
70971;BME280;58632;51.718;19.446;2023-05-22T04:32:54;99913.66;;;22.08;79.40
70971;BME280;58632;51.718;19.446;2023-05-22T04:35:20;99913.27;;;22.63;72.07
70971;BME280;58632;51.718;19.446;2023-05-22T04:37:46;99910.59;;;22.94;63.20
70971;BME280;58632;51.718;19.446;2023-05-22T04:40:12;99912.08;;;23.13;63.07
70971;BME280;58632;51.718;19.446;2023-05-22T04:42:39;99909.81;;;23.41;59.72
70971;BME280;58632;51.718;19.446;2023-05-22T04:45:07;99909.90;;;23.84;57.56
70971;BME280;58632;51.718;19.446;2023-05-22T04:47:34;99910.90;;;24.35;54.44
70971;BME280;58632;51.718;19.446;2023-05-22T04:50:05;99915.86;;;24.87;53.95
70971;BME280;58632;51.718;19.446;2023-05-22T04:52:31;99915.16;;;25.29;50.72
70971;BME280;58632;51.718;19.446;2023-05-22T04:54:56;99912.39;;;25.40;49.02
70971;BME280;58632;51.718;19.446;2023-05-22T04:57:22;99912.52;;;25.65;47.73
70971;BME280;58632;51.718;19.446;2023-05-22T04:59:49;99909.85;;;25.86;45.70
70971;BME280;58632;51.718;19.446;2023-05-22T05:02:15;99913.56;;;26.20;44.94
70971;BME280;58632;51.718;19.446;2023-05-22T05:04:40;99911.67;;;26.53;44.19
70971;BME280;58632;51.718;19.446;2023-05-22T05:07:07;99913.66;;;26.64;41.93
70971;BME280;58632;51.718;19.446;2023-05-22T05:09:33;99910.33;;;26.62;42.15
70971;BME280;58632;51.718;19.446;2023-05-22T05:11:58;99908.88;;;26.48;41.50
70971;BME280;58632;51.718;19.446;2023-05-22T05:14:24;99908.57;;;26.02;40.15
70971;BME280;58632;51.718;19.446;2023-05-22T05:16:50;99912.83;;;25.62;40.69
70971;BME280;58632;51.718;19.446;2023-05-22T05:19:19;99914.42;;;25.85;40.46
70971;BME280;58632;51.718;19.446;2023-05-22T05:21:48;99909.02;;;25.80;41.19
70971;BME280;58632;51.718;19.446;2023-05-22T05:24:17;99910.23;;;26.15;41.02
70971;BME280;58632;51.718;19.446;2023-05-22T05:26:43;99912.95;;;26.29;41.03
70971;BME280;58632;51.718;19.446;2023-05-22T05:29:08;99917.29;;;25.80;41.28
70971;BME280;58632;51.718;19.446;2023-05-22T05:31:36;99917.01;;;25.72;40.80
70971;BME280;58632;51.718;19.446;2023-05-22T05:34:01;99918.97;;;25.86;39.87
70971;BME280;58632;51.718;19.446;2023-05-22T05:36:26;99923.55;;;26.12;39.37
70971;BME280;58632;51.718;19.446;2023-05-22T05:38:52;99921.05;;;26.44;39.10
70971;BME280;58632;51.718;19.446;2023-05-22T05:41:25;99923.39;;;26.97;38.73
70971;BME280;58632;51.718;19.446;2023-05-22T05:43:50;99918.80;;;27.77;37.34
70971;BME280;58632;51.718;19.446;2023-05-22T05:46:16;99917.83;;;28.29;35.46
70971;BME280;58632;51.718;19.446;2023-05-22T05:48:42;99918.12;;;28.81;34.59
70971;BME280;58632;51.718;19.446;2023-05-22T05:51:08;99920.15;;;29.33;33.98
70971;BME280;58632;51.718;19.446;2023-05-22T05:53:33;99917.48;;;29.88;33.09
70971;BME280;58632;51.718;19.446;2023-05-22T05:56:01;99918.70;;;30.28;32.48
70971;BME280;58632;51.718;19.446;2023-05-22T05:58:26;99916.71;;;30.49;30.72
70971;BME280;58632;51.718;19.446;2023-05-22T06:00:52;99914.89;;;30.57;30.62
70971;BME280;58632;51.718;19.446;2023-05-22T06:03:17;99911.73;;;30.70;29.84
70971;BME280;58632;51.718;19.446;2023-05-22T06:05:42;99909.35;;;30.78;29.53
70971;BME280;58632;51.718;19.446;2023-05-22T06:08:10;99906.92;;;31.07;29.46
70971;BME280;58632;51.718;19.446;2023-05-22T06:10:35;99902.20;;;31.13;29.50
70971;BME280;58632;51.718;19.446;2023-05-22T06:13:01;99900.18;;;31.08;29.35
70971;BME280;58632;51.718;19.446;2023-05-22T06:15:26;99899.87;;;31.04;28.90
70971;BME280;58632;51.718;19.446;2023-05-22T06:17:52;99898.00;;;31.21;28.36
70971;BME280;58632;51.718;19.446;2023-05-22T06:20:18;99894.39;;;31.10;27.86
70971;BME280;58632;51.718;19.446;2023-05-22T06:22:43;99894.55;;;31.12;28.24
70971;BME280;58632;51.718;19.446;2023-05-22T06:25:09;99895.72;;;31.04;28.42
70971;BME280;58632;51.718;19.446;2023-05-22T06:27:35;99894.73;;;30.96;28.76
70971;BME280;58632;51.718;19.446;2023-05-22T06:30:00;99890.64;;;30.97;27.38
70971;BME280;58632;51.718;19.446;2023-05-22T06:32:26;99894.30;;;30.41;27.52
70971;BME280;58632;51.718;19.446;2023-05-22T06:34:51;99893.41;;;30.03;27.77
70971;BME280;58632;51.718;19.446;2023-05-22T06:37:17;99893.42;;;29.68;27.83
70971;BME280;58632;51.718;19.446;2023-05-22T06:39:42;99898.24;;;29.19;28.73
70971;BME280;58632;51.718;19.446;2023-05-22T06:42:08;99897.86;;;28.95;28.79
70971;BME280;58632;51.718;19.446;2023-05-22T06:44:33;99897.96;;;28.88;29.49
70971;BME280;58632;51.718;19.446;2023-05-22T06:46:58;99897.01;;;28.63;28.50
70971;BME280;58632;51.718;19.446;2023-05-22T06:49:24;99894.88;;;28.13;29.29
70971;BME280;58632;51.718;19.446;2023-05-22T06:51:50;99897.73;;;27.88;30.15
70971;BME280;58632;51.718;19.446;2023-05-22T06:54:15;99897.77;;;27.83;30.66
70971;BME280;58632;51.718;19.446;2023-05-22T06:56:41;99897.98;;;27.69;30.29
70971;BME280;58632;51.718;19.446;2023-05-22T06:59:08;99895.08;;;27.48;30.29
70971;BME280;58632;51.718;19.446;2023-05-22T07:01:37;99893.81;;;27.16;29.73
70971;BME280;58632;51.718;19.446;2023-05-22T07:04:02;99889.46;;;27.12;31.24
70971;BME280;58632;51.718;19.446;2023-05-22T07:06:29;99887.93;;;27.44;31.22
70971;BME280;58632;51.718;19.446;2023-05-22T07:08:57;99890.83;;;27.81;31.00
70971;BME280;58632;51.718;19.446;2023-05-22T07:11:23;99892.78;;;27.94;31.43
70971;BME280;58632;51.718;19.446;2023-05-22T07:13:48;99889.37;;;27.89;30.99
70971;BME280;58632;51.718;19.446;2023-05-22T07:16:14;99889.13;;;27.92;30.92
70971;BME280;58632;51.718;19.446;2023-05-22T07:18:39;99888.64;;;27.77;30.69
70971;BME280;58632;51.718;19.446;2023-05-22T07:21:06;99887.06;;;27.62;29.38
70971;BME280;58632;51.718;19.446;2023-05-22T07:23:31;99881.84;;;27.58;29.53
70971;BME280;58632;51.718;19.446;2023-05-22T07:25:56;99882.84;;;27.60;30.49
70971;BME280;58632;51.718;19.446;2023-05-22T07:28:22;99878.87;;;27.65;31.22
70971;BME280;58632;51.718;19.446;2023-05-22T07:30:47;99881.02;;;27.59;31.31
70971;BME280;58632;51.718;19.446;2023-05-22T07:33:12;99881.98;;;27.62;32.34
70971;BME280;58632;51.718;19.446;2023-05-22T07:35:38;99880.49;;;27.83;31.17
70971;BME280;58632;51.718;19.446;2023-05-22T07:38:04;99881.80;;;27.89;30.27
70971;BME280;58632;51.718;19.446;2023-05-22T07:40:29;99882.02;;;27.71;29.17
70971;BME280;58632;51.718;19.446;2023-05-22T07:42:55;99882.29;;;27.49;28.96
70971;BME280;58632;51.718;19.446;2023-05-22T07:45:20;99880.19;;;27.27;28.85
70971;BME280;58632;51.718;19.446;2023-05-22T07:47:46;99886.52;;;27.11;29.41
70971;BME280;58632;51.718;19.446;2023-05-22T07:50:11;99887.34;;;27.01;28.42
70971;BME280;58632;51.718;19.446;2023-05-22T07:52:37;99888.34;;;26.96;29.38
70971;BME280;58632;51.718;19.446;2023-05-22T07:55:02;99885.69;;;26.92;29.19
70971;BME280;58632;51.718;19.446;2023-05-22T07:57:28;99886.64;;;26.85;28.97
70971;BME280;58632;51.718;19.446;2023-05-22T07:59:56;99885.90;;;26.77;28.53
70971;BME280;58632;51.718;19.446;2023-05-22T08:02:23;99883.08;;;26.78;28.25
70971;BME280;58632;51.718;19.446;2023-05-22T08:04:48;99883.38;;;26.66;28.10
70971;BME280;58632;51.718;19.446;2023-05-22T08:07:14;99879.83;;;26.67;28.34
70971;BME280;58632;51.718;19.446;2023-05-22T08:09:39;99876.66;;;26.65;28.81
70971;BME280;58632;51.718;19.446;2023-05-22T08:12:05;99878.96;;;26.66;28.66
70971;BME280;58632;51.718;19.446;2023-05-22T08:14:31;99881.92;;;26.71;28.81
70971;BME280;58632;51.718;19.446;2023-05-22T08:16:57;99884.09;;;26.71;29.85
70971;BME280;58632;51.718;19.446;2023-05-22T08:19:23;99880.88;;;26.83;30.83
70971;BME280;58632;51.718;19.446;2023-05-22T08:21:48;99877.45;;;27.02;30.20
70971;BME280;58632;51.718;19.446;2023-05-22T08:24:14;99875.49;;;27.16;29.22
70971;BME280;58632;51.718;19.446;2023-05-22T08:26:39;99876.52;;;27.05;28.79
70971;BME280;58632;51.718;19.446;2023-05-22T08:29:05;99880.05;;;27.09;29.30
70971;BME280;58632;51.718;19.446;2023-05-22T08:31:30;99880.41;;;26.87;27.76
70971;BME280;58632;51.718;19.446;2023-05-22T08:33:58;99876.55;;;26.66;28.07
70971;BME280;58632;51.718;19.446;2023-05-22T08:36:29;99875.73;;;26.67;27.87
70971;BME280;58632;51.718;19.446;2023-05-22T08:38:55;99874.45;;;26.75;28.56
70971;BME280;58632;51.718;19.446;2023-05-22T08:41:21;99873.38;;;26.90;28.70
70971;BME280;58632;51.718;19.446;2023-05-22T08:43:46;99867.20;;;26.81;28.10
70971;BME280;58632;51.718;19.446;2023-05-22T08:46:12;99883.36;;;26.71;28.44
70971;BME280;58632;51.718;19.446;2023-05-22T08:48:40;99876.25;;;26.60;26.60
70971;BME280;58632;51.718;19.446;2023-05-22T08:51:06;99873.11;;;26.57;28.58
70971;BME280;58632;51.718;19.446;2023-05-22T08:53:32;99871.68;;;26.64;28.85
70971;BME280;58632;51.718;19.446;2023-05-22T08:55:58;99865.15;;;26.58;27.37
70971;BME280;58632;51.718;19.446;2023-05-22T08:58:24;99864.38;;;26.51;28.82
70971;BME280;58632;51.718;19.446;2023-05-22T09:00:50;99860.89;;;26.47;28.53
70971;BME280;58632;51.718;19.446;2023-05-22T09:03:16;99858.84;;;26.37;28.23
70971;BME280;58632;51.718;19.446;2023-05-22T09:05:44;99862.60;;;26.29;27.84
70971;BME280;58632;51.718;19.446;2023-05-22T09:08:10;99858.05;;;26.32;28.94
70971;BME280;58632;51.718;19.446;2023-05-22T09:10:36;99859.84;;;26.41;29.61
70971;BME280;58632;51.718;19.446;2023-05-22T09:13:05;99846.03;;;26.50;29.50
70971;BME280;58632;51.718;19.446;2023-05-22T09:15:35;99840.81;;;26.54;29.56
70971;BME280;58632;51.718;19.446;2023-05-22T09:18:01;99841.52;;;26.61;29.10
70971;BME280;58632;51.718;19.446;2023-05-22T09:20:27;99846.12;;;26.58;28.64
70971;BME280;58632;51.718;19.446;2023-05-22T09:22:52;99839.51;;;26.69;28.20
70971;BME280;58632;51.718;19.446;2023-05-22T09:25:19;99836.74;;;26.72;30.02
70971;BME280;58632;51.718;19.446;2023-05-22T09:27:45;99840.30;;;26.70;28.10
70971;BME280;58632;51.718;19.446;2023-05-22T09:30:11;99841.63;;;26.72;27.37
70971;BME280;58632;51.718;19.446;2023-05-22T09:32:39;99844.94;;;26.48;26.90
70971;BME280;58632;51.718;19.446;2023-05-22T09:35:05;99843.34;;;26.15;27.35
70971;BME280;58632;51.718;19.446;2023-05-22T09:37:35;99843.38;;;25.99;28.34
70971;BME280;58632;51.718;19.446;2023-05-22T09:40:04;99839.11;;;25.95;28.79
70971;BME280;58632;51.718;19.446;2023-05-22T09:42:31;99842.44;;;25.97;28.47
70971;BME280;58632;51.718;19.446;2023-05-22T09:45:01;99839.88;;;25.92;28.45
70971;BME280;58632;51.718;19.446;2023-05-22T09:47:26;99837.89;;;25.97;29.02
70971;BME280;58632;51.718;19.446;2023-05-22T09:49:52;99832.25;;;26.03;27.78
70971;BME280;58632;51.718;19.446;2023-05-22T09:52:21;99829.77;;;26.12;28.75
70971;BME280;58632;51.718;19.446;2023-05-22T09:54:51;99834.30;;;26.28;29.48
70971;BME280;58632;51.718;19.446;2023-05-22T09:57:19;99833.15;;;26.34;28.39
70971;BME280;58632;51.718;19.446;2023-05-22T09:59:47;99834.41;;;26.44;28.89
70971;BME280;58632;51.718;19.446;2023-05-22T10:02:14;99835.34;;;26.47;27.02
70971;BME280;58632;51.718;19.446;2023-05-22T10:04:39;99827.29;;;26.44;27.23
70971;BME280;58632;51.718;19.446;2023-05-22T10:07:05;99821.35;;;26.39;27.67
70971;BME280;58632;51.718;19.446;2023-05-22T10:09:32;99826.27;;;26.38;29.09
70971;BME280;58632;51.718;19.446;2023-05-22T10:12:04;99821.04;;;26.39;27.83
70971;BME280;58632;51.718;19.446;2023-05-22T10:14:31;99818.66;;;26.29;28.12
70971;BME280;58632;51.718;19.446;2023-05-22T10:16:58;99818.05;;;26.18;28.56
70971;BME280;58632;51.718;19.446;2023-05-22T10:19:29;99822.61;;;26.00;27.77
70971;BME280;58632;51.718;19.446;2023-05-22T10:21:56;99822.96;;;25.82;28.74
70971;BME280;58632;51.718;19.446;2023-05-22T10:24:23;99821.02;;;25.76;29.93
70971;BME280;58632;51.718;19.446;2023-05-22T10:26:49;99821.92;;;25.85;29.26
70971;BME280;58632;51.718;19.446;2023-05-22T10:29:16;99812.73;;;25.85;28.86
70971;BME280;58632;51.718;19.446;2023-05-22T10:34:41;99811.02;;;25.82;29.29
70971;BME280;58632;51.718;19.446;2023-05-22T10:37:30;99811.23;;;25.90;28.98
70971;BME280;58632;51.718;19.446;2023-05-22T10:42:31;99804.39;;;26.06;28.19
70971;BME280;58632;51.718;19.446;2023-05-22T10:44:58;99807.79;;;26.08;28.63
70971;BME280;58632;51.718;19.446;2023-05-22T10:47:24;99801.05;;;26.09;28.44
70971;BME280;58632;51.718;19.446;2023-05-22T10:49:50;99801.08;;;26.21;28.46
70971;BME280;58632;51.718;19.446;2023-05-22T10:52:26;99797.53;;;26.12;27.67
70971;BME280;58632;51.718;19.446;2023-05-22T10:54:52;99788.33;;;26.03;28.82
70971;BME280;58632;51.718;19.446;2023-05-22T10:57:18;99793.56;;;26.01;28.48
70971;BME280;58632;51.718;19.446;2023-05-22T10:59:47;99788.34;;;25.97;28.04
70971;BME280;58632;51.718;19.446;2023-05-22T11:02:17;99788.44;;;25.92;28.24
70971;BME280;58632;51.718;19.446;2023-05-22T11:04:43;99784.08;;;25.89;27.83
70971;BME280;58632;51.718;19.446;2023-05-22T11:07:08;99783.11;;;25.98;27.62
70971;BME280;58632;51.718;19.446;2023-05-22T11:09:45;99779.48;;;26.00;28.64
70971;BME280;58632;51.718;19.446;2023-05-22T11:12:17;99776.86;;;26.03;27.82
70971;BME280;58632;51.718;19.446;2023-05-22T11:14:51;99776.25;;;25.91;27.64
70971;BME280;58632;51.718;19.446;2023-05-22T11:17:29;99779.59;;;25.77;28.43
70971;BME280;58632;51.718;19.446;2023-05-22T11:24:55;99766.00;;;25.71;28.65
70971;BME280;58632;51.718;19.446;2023-05-22T11:27:20;99766.65;;;25.80;30.24
70971;BME280;58632;51.718;19.446;2023-05-22T11:29:46;99763.23;;;26.03;29.89
70971;BME280;58632;51.718;19.446;2023-05-22T11:32:12;99754.48;;;26.17;29.58
70971;BME280;58632;51.718;19.446;2023-05-22T11:34:44;99751.52;;;26.12;28.94
70971;BME280;58632;51.718;19.446;2023-05-22T11:37:10;99746.70;;;26.09;29.57
70971;BME280;58632;51.718;19.446;2023-05-22T11:39:35;99750.05;;;25.91;28.60
70971;BME280;58632;51.718;19.446;2023-05-22T11:42:01;99753.02;;;25.76;28.57
70971;BME280;58632;51.718;19.446;2023-05-22T11:44:37;99749.17;;;25.61;28.58
70971;BME280;58632;51.718;19.446;2023-05-22T11:47:03;99746.08;;;25.50;29.50
70971;BME280;58632;51.718;19.446;2023-05-22T11:49:29;99743.36;;;25.43;30.26
70971;BME280;58632;51.718;19.446;2023-05-22T11:51:55;99744.30;;;25.46;29.87
70971;BME280;58632;51.718;19.446;2023-05-22T11:54:21;99744.33;;;25.43;29.86
70971;BME280;58632;51.718;19.446;2023-05-22T11:56:47;99750.86;;;25.40;29.18
70971;BME280;58632;51.718;19.446;2023-05-22T11:59:12;99743.34;;;25.41;29.12
70971;BME280;58632;51.718;19.446;2023-05-22T12:01:37;99740.45;;;25.41;29.47
70971;BME280;58632;51.718;19.446;2023-05-22T12:04:03;99745.29;;;25.48;29.02
70971;BME280;58632;51.718;19.446;2023-05-22T12:06:28;99744.12;;;25.46;28.94
70971;BME280;58632;51.718;19.446;2023-05-22T12:08:57;99734.59;;;25.47;29.25
70971;BME280;58632;51.718;19.446;2023-05-22T12:11:24;99736.55;;;25.39;30.17
70971;BME280;58632;51.718;19.446;2023-05-22T12:13:58;99737.58;;;25.29;30.43
70971;BME280;58632;51.718;19.446;2023-05-22T12:16:23;99738.10;;;25.22;29.56
70971;BME280;58632;51.718;19.446;2023-05-22T12:18:52;99736.34;;;25.20;30.14
70971;BME280;58632;51.718;19.446;2023-05-22T12:21:21;99738.27;;;25.14;31.00
70971;BME280;58632;51.718;19.446;2023-05-22T12:23:47;99742.00;;;25.28;31.24
70971;BME280;58632;51.718;19.446;2023-05-22T12:26:13;99735.41;;;25.30;30.92
70971;BME280;58632;51.718;19.446;2023-05-22T12:28:38;99735.65;;;25.30;31.45
70971;BME280;58632;51.718;19.446;2023-05-22T12:31:04;99735.23;;;25.21;31.07
70971;BME280;58632;51.718;19.446;2023-05-22T12:33:29;99727.31;;;25.20;30.84
70971;BME280;58632;51.718;19.446;2023-05-22T12:35:55;99731.17;;;25.11;30.71
70971;BME280;58632;51.718;19.446;2023-05-22T12:38:29;99729.56;;;25.00;31.36
70971;BME280;58632;51.718;19.446;2023-05-22T12:40:55;99729.03;;;24.99;30.98
70971;BME280;58632;51.718;19.446;2023-05-22T12:43:24;99732.41;;;24.98;30.34
70971;BME280;58632;51.718;19.446;2023-05-22T12:45:50;99723.25;;;25.00;30.48
70971;BME280;58632;51.718;19.446;2023-05-22T12:48:16;99716.04;;;25.06;30.92
70971;BME280;58632;51.718;19.446;2023-05-22T12:50:44;99715.75;;;25.27;30.90
70971;BME280;58632;51.718;19.446;2023-05-22T12:53:10;99719.34;;;25.49;30.19
70971;BME280;58632;51.718;19.446;2023-05-22T12:55:36;99714.42;;;25.55;28.80
70971;BME280;58632;51.718;19.446;2023-05-22T12:58:02;99719.61;;;25.62;29.31
70971;BME280;58632;51.718;19.446;2023-05-22T13:00:28;99716.54;;;25.68;29.31
70971;BME280;58632;51.718;19.446;2023-05-22T13:02:53;99717.06;;;25.69;29.29
70971;BME280;58632;51.718;19.446;2023-05-22T13:05:19;99710.67;;;25.64;28.87